Terminal Aerodrome Forecast
Issued by NWS

Home | Current Version | Previous Version | Text Only | Print | Product List | Glossary On
Versions: 1 2 3 4 5 6 7 8 9 10 11 12 13 14 15 16 17 18 19 20 21
738
FTUS43 KPAH 250520
TAFCGI
TAF
KCGI 250520Z 2506/2606 00000KT P6SM SCT150
     FM251400 28005KT P6SM SKC
     FM251700 31009G16KT P6SM SCT090
     FM260000 34004KT P6SM FEW090 BKN150=

USA.gov is the U.S. government's official web portal to all federal, state and local government web resources and services.